sensor_id;sensor_type;location;lat;lon;timestamp;pressure;altitude;pressure_sealevel;temperature;humidity
57086;BME280;42964;42.910;23.792;2023-04-01T00:01:23;96693.88;;;11.24;56.73
57086;BME280;42964;42.910;23.792;2023-04-01T00:06:22;96707.25;;;11.46;55.41
57086;BME280;42964;42.910;23.792;2023-04-01T00:11:21;96700.81;;;11.64;54.71
57086;BME280;42964;42.910;23.792;2023-04-01T00:16:19;96708.75;;;11.96;53.43
57086;BME280;42964;42.910;23.792;2023-04-01T00:21:19;96699.59;;;12.15;52.43
57086;BME280;42964;42.910;23.792;2023-04-01T00:26:19;96702.53;;;12.39;51.90
57086;BME280;42964;42.910;23.792;2023-04-01T00:31:20;96675.56;;;12.41;51.87
57086;BME280;42964;42.910;23.792;2023-04-01T00:36:19;96696.03;;;12.55;52.40
57086;BME280;42964;42.910;23.792;2023-04-01T00:41:20;96629.56;;;12.43;52.81
57086;BME280;42964;42.910;23.792;2023-04-01T00:46:19;96695.19;;;12.87;50.34
57086;BME280;42964;42.910;23.792;2023-04-01T00:51:20;96674.19;;;13.25;52.97
57086;BME280;42964;42.910;23.792;2023-04-01T00:56:39;96678.22;;;13.35;53.80
57086;BME280;42964;42.910;23.792;2023-04-01T01:01:41;96621.78;;;13.06;53.84
57086;BME280;42964;42.910;23.792;2023-04-01T01:27:35;96612.66;;;13.49;52.21
57086;BME280;42964;42.910;23.792;2023-04-01T01:38:09;96615.00;;;13.58;47.41
57086;BME280;42964;42.910;23.792;2023-04-01T01:43:12;96607.38;;;13.80;46.76
57086;BME280;42964;42.910;23.792;2023-04-01T01:48:13;96601.78;;;13.91;45.93
57086;BME280;42964;42.910;23.792;2023-04-01T01:53:13;96587.66;;;13.98;45.42
57086;BME280;42964;42.910;23.792;2023-04-01T01:58:20;96575.88;;;14.13;44.80
57086;BME280;42964;42.910;23.792;2023-04-01T02:03:23;96572.22;;;14.17;43.82
57086;BME280;42964;42.910;23.792;2023-04-01T02:08:30;96574.28;;;14.34;43.92
57086;BME280;42964;42.910;23.792;2023-04-01T02:13:57;96575.81;;;14.39;43.37
57086;BME280;42964;42.910;23.792;2023-04-01T02:18:58;96567.53;;;14.52;43.09
57086;BME280;42964;42.910;23.792;2023-04-01T02:24:01;96521.56;;;14.24;42.19
57086;BME280;42964;42.910;23.792;2023-04-01T02:29:02;96560.41;;;14.57;42.22
57086;BME280;42964;42.910;23.792;2023-04-01T02:34:03;96561.91;;;14.64;42.06
57086;BME280;42964;42.910;23.792;2023-04-01T02:39:03;96556.69;;;14.64;42.14
57086;BME280;42964;42.910;23.792;2023-04-01T02:44:03;96548.38;;;14.53;42.72
57086;BME280;42964;42.910;23.792;2023-04-01T02:49:02;96540.59;;;14.51;42.50
57086;BME280;42964;42.910;23.792;2023-04-01T02:54:02;96539.94;;;14.45;42.63
57086;BME280;42964;42.910;23.792;2023-04-01T02:59:01;96534.84;;;14.41;42.68
57086;BME280;42964;42.910;23.792;2023-04-01T03:04:00;96545.28;;;14.41;42.95
57086;BME280;42964;42.910;23.792;2023-04-01T03:08:59;96548.81;;;14.40;42.70
57086;BME280;42964;42.910;23.792;2023-04-01T03:13:58;96554.72;;;14.46;42.89
57086;BME280;42964;42.910;23.792;2023-04-01T03:18:56;96553.13;;;14.41;43.05
57086;BME280;42964;42.910;23.792;2023-04-01T03:23:57;96558.38;;;14.40;43.17
57086;BME280;42964;42.910;23.792;2023-04-01T03:28:57;96469.84;;;13.87;43.08
57086;BME280;42964;42.910;23.792;2023-04-01T03:33:56;96557.53;;;14.39;42.68
57086;BME280;42964;42.910;23.792;2023-04-01T03:38:55;96567.78;;;14.46;42.42
57086;BME280;42964;42.910;23.792;2023-04-01T03:43:54;96585.44;;;14.37;42.59
57086;BME280;42964;42.910;23.792;2023-04-01T03:48:53;96575.00;;;14.37;41.89
57086;BME280;42964;42.910;23.792;2023-04-01T03:53:52;96581.50;;;14.51;42.01
57086;BME280;42964;42.910;23.792;2023-04-01T03:58:51;96575.00;;;14.62;41.92
57086;BME280;42964;42.910;23.792;2023-04-01T04:03:50;96575.97;;;14.60;41.34
57086;BME280;42964;42.910;23.792;2023-04-01T04:08:49;96567.53;;;14.52;41.42
57086;BME280;42964;42.910;23.792;2023-04-01T04:13:48;96567.44;;;14.55;41.48
57086;BME280;42964;42.910;23.792;2023-04-01T04:18:47;96576.28;;;14.51;41.55
57086;BME280;42964;42.910;23.792;2023-04-01T04:23:46;96546.25;;;14.39;41.59
57086;BME280;42964;42.910;23.792;2023-04-01T04:28:45;96567.53;;;14.52;41.22
57086;BME280;42964;42.910;23.792;2023-04-01T04:33:44;96533.50;;;14.55;41.32
57086;BME280;42964;42.910;23.792;2023-04-01T04:38:43;96528.16;;;14.58;41.03
57086;BME280;42964;42.910;23.792;2023-04-01T04:43:42;96514.81;;;14.66;40.69
57086;BME280;42964;42.910;23.792;2023-04-01T04:48:41;96492.97;;;14.68;40.77
57086;BME280;42964;42.910;23.792;2023-04-01T04:53:40;96479.59;;;14.77;40.54
57086;BME280;42964;42.910;23.792;2023-04-01T04:58:39;96462.25;;;14.76;40.18
57086;BME280;42964;42.910;23.792;2023-04-01T05:03:38;96471.94;;;14.73;39.91
57086;BME280;42964;42.910;23.792;2023-04-01T05:08:38;96469.16;;;14.77;40.04
57086;BME280;42964;42.910;23.792;2023-04-01T05:13:39;96444.66;;;14.56;40.69
57086;BME280;42964;42.910;23.792;2023-04-01T05:18:38;96423.97;;;14.52;40.52
57086;BME280;42964;42.910;23.792;2023-04-01T05:23:37;96446.56;;;14.53;40.73
57086;BME280;42964;42.910;23.792;2023-04-01T05:28:37;96420.34;;;14.56;41.62
57086;BME280;42964;42.910;23.792;2023-04-01T05:33:36;96415.91;;;14.58;41.35
57086;BME280;42964;42.910;23.792;2023-04-01T05:38:36;96395.75;;;14.61;40.99
57086;BME280;42964;42.910;23.792;2023-04-01T05:43:38;96378.91;;;14.70;40.40
57086;BME280;42964;42.910;23.792;2023-04-01T05:48:38;96354.84;;;14.62;40.11
57086;BME280;42964;42.910;23.792;2023-04-01T05:53:37;96386.00;;;14.89;39.99
57086;BME280;42964;42.910;23.792;2023-04-01T05:58:36;96378.28;;;15.08;39.58
57086;BME280;42964;42.910;23.792;2023-04-01T06:03:35;96365.75;;;15.16;40.03
57086;BME280;42964;42.910;23.792;2023-04-01T06:08:34;96386.41;;;15.42;39.22
57086;BME280;42964;42.910;23.792;2023-04-01T06:13:47;96368.97;;;15.43;38.46
57086;BME280;42964;42.910;23.792;2023-04-01T06:34:32;96348.53;;;15.92;37.98
57086;BME280;42964;42.910;23.792;2023-04-01T06:45:30;96361.56;;;16.50;37.78
57086;BME280;42964;42.910;23.792;2023-04-01T06:50:40;96310.41;;;16.43;37.22
57086;BME280;42964;42.910;23.792;2023-04-01T06:55:53;96352.56;;;16.94;36.15
57086;BME280;42964;42.910;23.792;2023-04-01T07:01:01;96339.69;;;16.89;36.08
57086;BME280;42964;42.910;23.792;2023-04-01T07:06:08;96354.72;;;17.21;35.80
57086;BME280;42964;42.910;23.792;2023-04-01T07:11:22;96349.25;;;17.25;35.94
57086;BME280;42964;42.910;23.792;2023-04-01T07:16:36;96338.31;;;17.17;35.98
57086;BME280;42964;42.910;23.792;2023-04-01T07:21:43;96285.03;;;16.99;35.31
57086;BME280;42964;42.910;23.792;2023-04-01T07:26:43;96302.53;;;17.16;35.32
57086;BME280;42964;42.910;23.792;2023-04-01T07:32:01;96312.78;;;17.38;34.62
57086;BME280;42964;42.910;23.792;2023-04-01T07:37:12;96299.44;;;17.76;33.82
57086;BME280;42964;42.910;23.792;2023-04-01T07:48:00;96302.75;;;18.29;33.92
57086;BME280;42964;42.910;23.792;2023-04-01T07:53:11;96286.81;;;18.79;34.65
57086;BME280;42964;42.910;23.792;2023-04-01T08:25:01;96278.09;;;20.53;30.68
57086;BME280;42964;42.910;23.792;2023-04-01T08:31:04;96278.69;;;20.43;29.98
57086;BME280;42964;42.910;23.792;2023-04-01T08:35:34;96272.56;;;20.43;29.74
57086;BME280;42964;42.910;23.792;2023-04-01T08:56:22;96222.13;;;21.14;29.63
57086;BME280;42964;42.910;23.792;2023-04-01T09:01:43;96221.28;;;21.14;29.08
57086;BME280;42964;42.910;23.792;2023-04-01T09:13:10;96197.47;;;21.54;29.07
57086;BME280;42964;42.910;23.792;2023-04-01T09:38:59;96171.13;;;22.87;26.85
57086;BME280;42964;42.910;23.792;2023-04-01T09:44:22;96144.38;;;23.14;24.36
57086;BME280;42964;42.910;23.792;2023-04-01T10:37:21;96078.84;;;21.40;26.45
57086;BME280;42964;42.910;23.792;2023-04-01T11:35:08;96074.78;;;19.23;36.92
57086;BME280;42964;42.910;23.792;2023-04-01T11:40:23;96068.47;;;18.82;40.55
57086;BME280;42964;42.910;23.792;2023-04-01T11:45:42;96075.78;;;18.18;43.20
57086;BME280;42964;42.910;23.792;2023-04-01T11:56:17;96104.84;;;17.20;47.27
57086;BME280;42964;42.910;23.792;2023-04-01T12:17:09;96278.22;;;14.63;64.97
57086;BME280;42964;42.910;23.792;2023-04-01T12:22:17;96333.88;;;14.19;73.66
57086;BME280;42964;42.910;23.792;2023-04-01T12:27:45;96387.38;;;12.51;88.63
57086;BME280;42964;42.910;23.792;2023-04-01T12:38:07;96393.34;;;10.56;100.00
57086;BME280;42964;42.910;23.792;2023-04-01T13:19:40;96335.94;;;11.40;100.00
57086;BME280;42964;42.910;23.792;2023-04-01T13:30:28;96293.78;;;11.62;100.00
57086;BME280;42964;42.910;23.792;2023-04-01T14:07:11;96218.47;;;12.17;100.00
57086;BME280;42964;42.910;23.792;2023-04-01T14:12:35;96207.13;;;12.19;100.00
57086;BME280;42964;42.910;23.792;2023-04-01T14:50:05;96081.34;;;12.72;100.00
57086;BME280;42964;42.910;23.792;2023-04-01T15:06:00;96089.00;;;13.00;100.00
57086;BME280;42964;42.910;23.792;2023-04-01T15:11:35;96104.16;;;13.12;100.00
57086;BME280;42964;42.910;23.792;2023-04-01T15:16:39;96124.41;;;13.04;100.00
57086;BME280;42964;42.910;23.792;2023-04-01T15:32:43;96134.31;;;12.94;93.54
57086;BME280;42964;42.910;23.792;2023-04-01T16:09:48;96145.53;;;13.20;100.00
57086;BME280;42964;42.910;23.792;2023-04-01T16:15:08;96264.75;;;12.87;86.59
57086;BME280;42964;42.910;23.792;2023-04-01T16:20:14;96325.94;;;11.87;86.34
57086;BME280;42964;42.910;23.792;2023-04-01T16:25:45;96367.47;;;10.92;91.22
57086;BME280;42964;42.910;23.792;2023-04-01T16:36:13;96403.91;;;10.10;89.00
57086;BME280;42964;42.910;23.792;2023-04-01T16:41:24;96425.66;;;10.01;84.91
57086;BME280;42964;42.910;23.792;2023-04-01T16:51:36;96377.69;;;9.82;91.09
57086;BME280;42964;42.910;23.792;2023-04-01T16:56:53;96336.09;;;9.88;95.28
57086;BME280;42964;42.910;23.792;2023-04-01T17:01:57;96354.31;;;10.24;96.89
57086;BME280;42964;42.910;23.792;2023-04-01T17:07:43;96367.38;;;10.20;96.13
57086;BME280;42964;42.910;23.792;2023-04-01T17:17:58;96408.00;;;10.18;96.23
57086;BME280;42964;42.910;23.792;2023-04-01T17:23:13;96416.72;;;10.16;97.12
57086;BME280;42964;42.910;23.792;2023-04-01T17:28:34;96428.03;;;10.12;96.25
57086;BME280;42964;42.910;23.792;2023-04-01T17:33:45;96427.44;;;9.99;94.76
57086;BME280;42964;42.910;23.792;2023-04-01T17:39:01;96445.84;;;9.84;92.99
57086;BME280;42964;42.910;23.792;2023-04-01T17:44:19;96444.34;;;9.72;92.12
57086;BME280;42964;42.910;23.792;2023-04-01T18:11:12;96469.13;;;9.37;92.06
57086;BME280;42964;42.910;23.792;2023-04-01T18:21:37;96495.06;;;9.35;91.32
57086;BME280;42964;42.910;23.792;2023-04-01T18:26:44;96516.75;;;9.25;88.73
57086;BME280;42964;42.910;23.792;2023-04-01T18:31:51;96532.34;;;9.22;88.94
57086;BME280;42964;42.910;23.792;2023-04-01T18:36:55;96503.22;;;9.09;87.86
57086;BME280;42964;42.910;23.792;2023-04-01T18:47:37;96525.81;;;8.98;85.09
57086;BME280;42964;42.910;23.792;2023-04-01T18:52:43;96558.50;;;9.04;86.50
57086;BME280;42964;42.910;23.792;2023-04-01T19:02:45;96561.19;;;8.96;83.97
57086;BME280;42964;42.910;23.792;2023-04-01T19:07:55;96539.97;;;8.71;80.27
57086;BME280;42964;42.910;23.792;2023-04-01T19:12:57;96555.38;;;8.80;82.67
57086;BME280;42964;42.910;23.792;2023-04-01T19:24:01;96567.34;;;8.87;81.58
57086;BME280;42964;42.910;23.792;2023-04-01T19:35:04;96582.88;;;8.87;81.99
57086;BME280;42964;42.910;23.792;2023-04-01T19:40:42;96604.41;;;8.91;82.86
57086;BME280;42964;42.910;23.792;2023-04-01T19:45:50;96598.31;;;8.93;80.73
57086;BME280;42964;42.910;23.792;2023-04-01T19:56:19;96603.47;;;8.95;81.93
57086;BME280;42964;42.910;23.792;2023-04-01T20:12:15;96545.84;;;8.82;78.86
57086;BME280;42964;42.910;23.792;2023-04-01T20:27:49;96581.34;;;8.74;76.47
57086;BME280;42964;42.910;23.792;2023-04-01T20:49:44;96634.44;;;9.03;71.12
57086;BME280;42964;42.910;23.792;2023-04-01T21:11:03;96680.91;;;9.12;73.65
57086;BME280;42964;42.910;23.792;2023-04-01T21:43:04;96694.56;;;9.20;71.75
57086;BME280;42964;42.910;23.792;2023-04-01T22:04:52;96684.13;;;9.31;77.20
57086;BME280;42964;42.910;23.792;2023-04-01T22:20:22;96687.44;;;9.41;75.29
57086;BME280;42964;42.910;23.792;2023-04-01T22:30:27;96701.16;;;9.49;73.69
57086;BME280;42964;42.910;23.792;2023-04-01T22:40:46;96651.19;;;9.41;72.03
57086;BME280;42964;42.910;23.792;2023-04-01T22:56:18;96658.53;;;9.70;70.75
57086;BME280;42964;42.910;23.792;2023-04-01T23:01:24;96519.13;;;8.83;67.99
57086;BME280;42964;42.910;23.792;2023-04-01T23:06:28;96619.06;;;9.54;69.05
57086;BME280;42964;42.910;23.792;2023-04-01T23:16:40;96666.97;;;9.83;67.32
57086;BME280;42964;42.910;23.792;2023-04-01T23:21:54;96660.56;;;9.49;65.83
57086;BME280;42964;42.910;23.792;2023-04-01T23:27:02;96682.13;;;9.51;66.04
57086;BME280;42964;42.910;23.792;2023-04-01T23:32:04;96673.59;;;9.43;65.50
57086;BME280;42964;42.910;23.792;2023-04-01T23:37:11;96676.38;;;9.31;66.00
57086;BME280;42964;42.910;23.792;2023-04-01T23:47:22;96656.03;;;8.99;66.13
57086;BME280;42964;42.910;23.792;2023-04-01T23:52:36;96700.53;;;9.25;65.93
57086;BME280;42964;42.910;23.792;2023-04-01T23:57:39;96704.88;;;9.26;66.47
